Time;durP1;ratioP1;P1;durP2;ratioP2;P2;SDS_P1;SDS_P2;PMS_P1;PMS_P2;Temp;Humidity;BMP_temperature;BMP_pressure;BME280_temperature;BME280_humidity;BME280_pressure;Samples;Min_cycle;Max_cycle;Signal;HPM_P1;HPM_P2
2023/06/10 00:02:28;;;;;;;5.35;3.85;;;;;;;17.48;100.00;101809.59;4973909;28;20057;-78
2023/06/10 00:04:56;;;;;;;8.30;3.95;;;;;;;17.43;100.00;101814.09;4987258;28;20064;-78
2023/06/10 00:07:24;;;;;;;8.02;3.60;;;;;;;17.37;100.00;101824.81;5006096;28;20073;-78
2023/06/10 00:09:52;;;;;;;6.15;3.75;;;;;;;17.32;100.00;101818.66;4965476;28;20045;-78
2023/06/10 00:12:20;;;;;;;4.78;3.53;;;;;;;17.26;100.00;101814.28;5005889;28;20046;-76
2023/06/10 00:14:50;;;;;;;6.25;3.67;;;;;;;17.22;100.00;101814.28;5005518;28;20052;-78
2023/06/10 00:17:17;;;;;;;5.70;3.73;;;;;;;17.17;100.00;101822.34;4969832;28;20049;-76
2023/06/10 00:19:46;;;;;;;9.32;4.43;;;;;;;17.11;100.00;101820.59;5003829;28;20293;-78
2023/06/10 00:22:14;;;;;;;9.27;3.60;;;;;;;17.06;100.00;101827.75;5005092;28;20042;-78
2023/06/10 00:24:42;;;;;;;9.63;3.80;;;;;;;17.01;100.00;101826.88;4944284;28;20050;-78
2023/06/10 00:27:09;;;;;;;8.60;3.85;;;;;;;16.93;100.00;101829.63;4982268;28;20054;-77
2023/06/10 00:29:36;;;;;;;6.25;3.67;;;;;;;16.89;100.00;101827.00;4988034;28;20050;-78
2023/06/10 00:32:04;;;;;;;7.50;4.10;;;;;;;16.82;100.00;101820.81;4994059;28;20050;-78
2023/06/10 00:34:35;;;;;;;9.02;3.72;;;;;;;16.76;100.00;101818.19;5003735;28;20053;-78
2023/06/10 00:37:03;;;;;;;6.60;3.80;;;;;;;16.71;100.00;101827.97;4973708;28;20041;-78
2023/06/10 00:39:30;;;;;;;6.25;3.95;;;;;;;16.66;100.00;101827.13;4928827;28;20082;-78
2023/06/10 00:41:58;;;;;;;7.03;4.53;;;;;;;16.59;100.00;101820.94;4981557;28;20054;-78
2023/06/10 00:44:26;;;;;;;6.55;3.88;;;;;;;16.52;100.00;101827.19;4985037;28;20054;-78
2023/06/10 00:46:55;;;;;;;6.45;3.30;;;;;;;16.46;100.00;101830.78;4983189;28;20045;-77
2023/06/10 00:49:23;;;;;;;8.65;3.90;;;;;;;16.37;100.00;101831.72;4992439;28;20050;-78
2023/06/10 00:51:52;;;;;;;4.32;3.03;;;;;;;16.33;100.00;101831.72;4989976;28;20054;-78
2023/06/10 00:54:20;;;;;;;8.77;3.83;;;;;;;16.27;100.00;101832.66;4950799;28;20476;-79
2023/06/10 00:56:48;;;;;;;7.88;3.42;;;;;;;16.23;100.00;101830.91;4982869;28;20042;-78
2023/06/10 00:59:15;;;;;;;5.75;3.60;;;;;;;16.18;100.00;101822.03;4999249;28;20049;-78
2023/06/10 01:01:43;;;;;;;5.68;3.50;;;;;;;16.11;100.00;101830.97;4971377;28;20042;-78
2023/06/10 01:04:12;;;;;;;6.35;3.80;;;;;;;16.07;100.00;101829.22;4985034;28;20504;-78
2023/06/10 01:06:57;;;;;;;8.43;4.20;;;;;;;16.01;100.00;101824.81;5001277;28;20869;-79
2023/06/10 01:09:37;;;;;;;11.40;4.25;;;;;;;15.96;100.00;101827.47;4998573;28;20115;-79
2023/06/10 01:12:26;;;;;;;6.07;3.85;;;;;;;15.93;100.00;101827.47;4961218;28;20053;-78
2023/06/10 01:14:55;;;;;;;8.07;3.97;;;;;;;15.90;100.00;101842.56;4995317;28;20060;-77
2023/06/10 01:17:23;;;;;;;4.78;3.42;;;;;;;15.86;100.00;101835.47;5003533;28;20044;-78
2023/06/10 01:19:55;;;;;;;9.43;4.47;;;;;;;15.84;100.00;101845.22;4990377;28;20047;-78
2023/06/10 01:22:32;;;;;;;10.77;3.83;;;;;;;15.79;100.00;101838.16;5001581;28;20081;-77
2023/06/10 01:25:00;;;;;;;5.57;3.58;;;;;;;15.75;100.00;101844.38;4990243;28;20519;-77
2023/06/10 01:27:32;;;;;;;6.78;3.60;;;;;;;15.73;100.00;101842.56;4944392;28;20057;-77
2023/06/10 01:30:07;;;;;;;5.78;2.75;;;;;;;15.70;100.00;101842.56;4987470;28;20104;-78
2023/06/10 01:32:40;;;;;;;8.25;3.85;;;;;;;15.67;100.00;101839.91;4986343;28;20050;-77
2023/06/10 01:35:08;;;;;;;6.72;3.80;;;;;;;15.62;100.00;101845.25;4989102;28;20041;-78
2023/06/10 01:37:39;;;;;;;9.25;3.80;;;;;;;15.58;100.00;101843.50;4973360;28;20057;-77
2023/06/10 01:40:08;;;;;;;6.45;3.70;;;;;;;15.55;100.00;101841.69;4999119;28;20041;-78
2023/06/10 01:42:35;;;;;;;9.45;4.20;;;;;;;15.52;100.00;101839.06;4928181;28;20092;-77
2023/06/10 01:45:03;;;;;;;7.40;3.92;;;;;;;15.48;100.00;101852.34;5005073;28;20059;-78
2023/06/10 01:47:31;;;;;;;8.30;3.90;;;;;;;15.44;100.00;101851.44;4990532;28;20441;-79
2023/06/10 01:49:59;;;;;;;7.40;4.03;;;;;;;15.41;100.00;101851.47;4979155;28;20049;-77
2023/06/10 01:52:27;;;;;;;10.85;4.43;;;;;;;15.35;100.00;101855.03;5001846;28;20048;-77
2023/06/10 01:54:55;;;;;;;6.55;4.28;;;;;;;15.30;100.00;101850.59;5003351;28;20791;-77
2023/06/10 01:57:22;;;;;;;8.27;4.07;;;;;;;15.25;100.00;101849.69;4941912;28;20047;-78
2023/06/10 01:59:50;;;;;;;7.88;4.28;;;;;;;15.19;100.00;101854.13;5008045;28;20046;-77
2023/06/10 02:02:17;;;;;;;6.90;4.57;;;;;;;15.14;100.00;101847.94;4970522;28;20050;-77
2023/06/10 02:04:44;;;;;;;7.50;4.18;;;;;;;15.11;100.00;101845.28;4964210;28;20042;-77
2023/06/10 02:07:12;;;;;;;6.05;3.95;;;;;;;15.05;100.00;101850.59;4955744;28;20058;-77
2023/06/10 02:09:39;;;;;;;7.55;4.15;;;;;;;14.97;100.00;101857.66;4982820;28;20049;-77
2023/06/10 02:12:07;;;;;;;10.05;4.82;;;;;;;14.93;100.00;101855.88;4999214;28;20058;-77
2023/06/10 02:14:35;;;;;;;6.07;3.95;;;;;;;14.89;100.00;101854.09;4928756;28;20054;-77
2023/06/10 02:17:02;;;;;;;8.63;4.65;;;;;;;14.84;100.00;101864.72;4987174;28;20061;-77
2023/06/10 02:19:30;;;;;;;7.57;4.55;;;;;;;14.79;100.00;101854.09;4988793;28;20050;-77
2023/06/10 02:21:59;;;;;;;13.50;5.03;;;;;;;14.76;100.00;101854.09;4993982;28;20508;-77
2023/06/10 02:24:26;;;;;;;10.77;5.22;;;;;;;14.72;100.00;101854.94;4980531;28;20061;-77
2023/06/10 02:26:55;;;;;;;8.52;4.22;;;;;;;14.67;100.00;101854.09;4988322;28;20105;-77
2023/06/10 02:29:22;;;;;;;7.78;4.55;;;;;;;14.60;100.00;101846.97;4943195;28;20420;-77
2023/06/10 02:31:52;;;;;;;12.23;5.00;;;;;;;14.54;100.00;101857.56;4974354;28;20431;-77
2023/06/10 02:34:20;;;;;;;11.48;5.78;;;;;;;14.48;100.00;101853.13;4972299;28;20042;-77
2023/06/10 02:36:51;;;;;;;9.45;4.75;;;;;;;14.45;100.00;101852.22;4968237;28;20045;-77
2023/06/10 02:39:22;;;;;;;9.32;5.30;;;;;;;14.41;100.00;101856.63;4993807;28;20050;-77
2023/06/10 02:41:50;;;;;;;9.80;4.90;;;;;;;14.39;100.00;101851.31;4987508;28;20057;-77
2023/06/10 02:44:20;;;;;;;8.63;5.40;;;;;;;14.35;100.00;101862.78;4972352;28;20630;-77
2023/06/10 02:46:49;;;;;;;10.88;5.13;;;;;;;14.33;100.00;101855.69;5016927;28;20415;-77
2023/06/10 02:49:16;;;;;;;10.45;5.30;;;;;;;14.30;100.00;101853.91;4977595;28;20046;-77
2023/06/10 02:51:45;;;;;;;12.45;5.75;;;;;;;14.27;100.00;101847.72;4982838;28;20050;-76
2023/06/10 02:54:14;;;;;;;20.13;5.50;;;;;;;14.20;100.00;101849.47;4976468;28;20053;-77
2023/06/10 02:56:42;;;;;;;10.65;5.85;;;;;;;14.17;100.00;101858.28;4986967;28;20121;-77
2023/06/10 02:59:16;;;;;;;16.73;6.07;;;;;;;14.16;100.00;101847.69;4936010;28;20050;-77
2023/06/10 03:01:44;;;;;;;12.45;5.88;;;;;;;14.13;100.00;101856.50;4993807;28;20057;-77
2023/06/10 03:04:13;;;;;;;12.73;6.32;;;;;;;14.08;100.00;101854.72;4983593;28;20406;-77
2023/06/10 03:06:48;;;;;;;12.77;5.80;;;;;;;14.01;100.00;101852.03;4974801;28;20045;-77
2023/06/10 03:09:21;;;;;;;13.73;6.72;;;;;;;13.95;100.00;101854.66;4974539;28;20053;-77
2023/06/10 03:11:53;;;;;;;12.93;6.30;;;;;;;13.93;100.00;101855.50;4977138;28;20049;-77
2023/06/10 03:14:20;;;;;;;12.88;5.93;;;;;;;13.91;100.00;101858.16;4953516;28;20061;-78
2023/06/10 03:16:48;;;;;;;13.07;6.07;;;;;;;13.88;100.00;101859.91;4975560;28;20049;-77
2023/06/10 03:19:16;;;;;;;10.75;5.68;;;;;;;13.86;100.00;101866.97;5005534;28;20061;-77
2023/06/10 03:21:53;;;;;;;13.50;6.63;;;;;;;13.85;100.00;101863.41;4991701;28;20065;-77
2023/06/10 03:24:21;;;;;;;7.47;5.38;;;;;;;13.83;100.00;101871.34;4989199;28;20066;-77
2023/06/10 03:26:49;;;;;;;12.55;6.65;;;;;;;13.80;100.00;101879.28;5008666;28;20046;-77
2023/06/10 03:29:17;;;;;;;11.80;6.72;;;;;;;13.76;100.00;101882.81;5005612;28;20057;-77
2023/06/10 03:31:44;;;;;;;11.63;6.20;;;;;;;13.74;100.00;101892.50;4951548;28;20073;-77
2023/06/10 03:34:12;;;;;;;11.55;6.43;;;;;;;13.72;100.00;101880.13;4990301;28;20049;-77
2023/06/10 03:36:42;;;;;;;11.68;6.18;;;;;;;13.70;100.00;101887.16;4999114;28;20525;-77
2023/06/10 03:39:10;;;;;;;8.20;5.65;;;;;;;13.66;100.00;101886.25;4975123;28;20049;-77
2023/06/10 03:41:37;;;;;;;11.88;6.65;;;;;;;13.67;100.00;101895.06;5005179;28;20053;-78
2023/06/10 03:44:06;;;;;;;10.27;6.03;;;;;;;13.67;100.00;101889.78;4990922;28;20058;-77
2023/06/10 03:46:33;;;;;;;13.05;6.25;;;;;;;13.70;100.00;101893.34;4958168;28;20042;-77
2023/06/10 03:49:02;;;;;;;11.85;6.55;;;;;;;13.70;100.00;101896.00;4995607;28;20046;-77
2023/06/10 03:51:31;;;;;;;14.55;7.10;;;;;;;13.71;100.00;101896.91;4991993;28;20046;-77
2023/06/10 03:53:59;;;;;;;7.40;5.40;;;;;;;13.72;100.00;101893.34;4994548;28;20065;-76
2023/06/10 03:56:26;;;;;;;10.93;6.20;;;;;;;13.74;100.00;101899.53;4967154;28;20679;-77
2023/06/10 03:58:54;;;;;;;11.48;6.28;;;;;;;13.74;100.00;101896.91;5002121;28;20049;-77
2023/06/10 04:01:23;;;;;;;11.73;6.00;;;;;;;13.75;100.00;101896.91;4973372;28;20952;-77
2023/06/10 04:03:53;;;;;;;12.38;5.78;;;;;;;13.88;100.00;101895.25;4958743;28;20064;-77
2023/06/10 04:06:22;;;;;;;11.60;6.38;;;;;;;13.99;100.00;101898.84;4969740;28;20463;-77
2023/06/10 04:08:49;;;;;;;10.75;6.25;;;;;;;14.60;100.00;101892.06;4979826;28;20068;-77
2023/06/10 04:11:17;;;;;;;7.22;5.28;;;;;;;15.33;100.00;101893.06;4989914;28;20168;-77
2023/06/10 04:13:45;;;;;;;9.93;5.78;;;;;;;16.23;100.00;101883.22;4970305;28;20054;-76
2023/06/10 04:16:13;;;;;;;10.25;5.25;;;;;;;17.00;100.00;101882.84;4985281;28;21624;-77
2023/06/10 04:18:41;;;;;;;7.45;4.70;;;;;;;17.56;100.00;101884.16;4959928;28;20046;-77
2023/06/10 04:21:10;;;;;;;9.15;4.97;;;;;;;18.26;100.00;101879.88;4986032;28;20054;-77
2023/06/10 04:23:38;;;;;;;12.63;5.10;;;;;;;18.76;100.00;101881.88;4990943;28;20041;-77
2023/06/10 04:26:12;;;;;;;6.78;3.92;;;;;;;19.33;100.00;101881.91;4976834;28;20049;-78
2023/06/10 04:28:39;;;;;;;10.05;4.75;;;;;;;19.78;100.00;101887.38;4982063;28;20052;-77
2023/06/10 04:31:07;;;;;;;11.80;4.90;;;;;;;20.23;100.00;101882.03;4964211;28;20061;-77
2023/06/10 04:33:35;;;;;;;9.43;5.10;;;;;;;20.55;100.00;101888.50;4956529;28;20097;-77
2023/06/10 04:36:06;;;;;;;8.55;4.15;;;;;;;20.64;100.00;101880.31;5005136;28;20054;-77
2023/06/10 04:38:35;;;;;;;6.20;4.00;;;;;;;21.01;100.00;101878.56;4984090;28;20090;-77
2023/06/10 04:41:03;;;;;;;11.40;4.28;;;;;;;21.33;100.00;101884.94;4992901;28;20050;-78
2023/06/10 04:43:33;;;;;;;12.00;4.50;;;;;;;21.87;100.00;101876.38;4973632;28;20050;-77
2023/06/10 04:46:01;;;;;;;7.20;3.88;;;;;;;22.30;100.00;101882.34;4960279;28;20060;-77
2023/06/10 04:48:29;;;;;;;9.73;4.35;;;;;;;22.47;100.00;101884.53;4959785;28;20625;-78
2023/06/10 04:50:58;;;;;;;9.68;3.83;;;;;;;22.67;100.00;101886.63;4989319;28;20058;-77
2023/06/10 04:53:26;;;;;;;6.57;3.50;;;;;;;22.76;100.00;101886.34;4994350;28;20613;-78
2023/06/10 04:55:54;;;;;;;9.65;4.47;;;;;;;23.10;100.00;101883.47;4978464;28;20054;-78
2023/06/10 04:58:21;;;;;;;7.95;4.03;;;;;;;23.44;100.00;101881.44;4983269;28;20057;-78
2023/06/10 05:00:49;;;;;;;6.00;3.92;;;;;;;23.64;100.00;101887.00;4980441;28;20052;-77
2023/06/10 05:03:16;;;;;;;8.80;4.00;;;;;;;23.80;98.69;101890.09;4957651;28;22465;-78
2023/06/10 05:05:44;;;;;;;10.50;3.80;;;;;;;23.99;96.84;101894.78;4971764;28;20053;-78
2023/06/10 05:08:11;;;;;;;5.70;3.95;;;;;;;24.15;94.85;101896.00;4983623;28;20101;-77
2023/06/10 05:10:39;;;;;;;9.05;4.38;;;;;;;24.31;93.83;101893.63;4962108;28;20050;-77
2023/06/10 05:13:06;;;;;;;7.03;4.13;;;;;;;24.43;91.62;101903.03;4985358;28;20077;-78
2023/06/10 05:15:33;;;;;;;8.23;3.60;;;;;;;24.41;90.55;101897.72;4986553;28;20053;-77
2023/06/10 05:18:02;;;;;;;8.35;3.78;;;;;;;24.48;89.50;101882.16;4970095;28;20054;-77
2023/06/10 05:20:30;;;;;;;6.82;4.18;;;;;;;24.51;87.96;101892.84;4945176;28;20156;-77
2023/06/10 05:22:57;;;;;;;7.53;4.15;;;;;;;24.24;86.79;101895.66;4995960;28;20058;-77
2023/06/10 05:25:27;;;;;;;7.13;4.18;;;;;;;24.33;87.05;101889.06;4998710;28;20050;-78
2023/06/10 05:27:54;;;;;;;7.80;4.38;;;;;;;24.62;85.87;101887.06;4995054;28;20057;-77
2023/06/10 05:30:22;;;;;;;6.72;3.78;;;;;;;24.64;84.27;101888.75;4987753;28;20498;-77
2023/06/10 05:32:51;;;;;;;8.13;4.25;;;;;;;24.88;83.18;101889.59;5001097;28;20057;-77
2023/06/10 05:35:18;;;;;;;8.27;4.03;;;;;;;25.05;81.60;101894.31;4930639;28;20050;-76
2023/06/10 05:37:46;;;;;;;7.45;3.50;;;;;;;25.00;80.64;101898.13;4990501;28;20062;-77
2023/06/10 05:40:13;;;;;;;7.60;4.05;;;;;;;25.18;79.65;101892.00;4981239;28;20046;-77
2023/06/10 05:42:40;;;;;;;5.75;3.40;;;;;;;25.01;79.09;101905.25;4981050;28;20046;-77
2023/06/10 05:45:08;;;;;;;7.20;3.42;;;;;;;25.16;78.67;101895.66;5000503;28;20526;-83
2023/06/10 05:47:36;;;;;;;4.05;3.33;;;;;;;25.27;77.46;101897.03;4981170;28;20053;-82
2023/06/10 05:50:06;;;;;;;7.10;4.00;;;;;;;25.34;75.74;101894.94;4984896;28;20054;-82
2023/06/10 05:52:40;;;;;;;6.32;3.92;;;;;;;25.34;75.66;101891.38;4961182;28;20064;-82
2023/06/10 05:55:08;;;;;;;6.35;3.40;;;;;;;25.37;74.02;101893.91;4989873;28;20060;-84
2023/06/10 05:57:36;;;;;;;8.63;4.32;;;;;;;25.20;72.76;101889.19;4969481;28;20062;-81
2023/06/10 06:00:04;;;;;;;4.90;3.03;;;;;;;25.36;73.50;101892.19;4972536;28;20419;-82
2023/06/10 06:02:38;;;;;;;9.57;4.57;;;;;;;25.54;70.31;101890.50;5000241;28;20061;-82
2023/06/10 06:05:06;;;;;;;9.60;4.20;;;;;;;25.41;69.19;101892.88;5007085;28;20046;-82
2023/06/10 06:07:33;;;;;;;6.60;4.05;;;;;;;25.08;69.01;101882.50;4962105;28;20046;-82
2023/06/10 06:10:01;;;;;;;7.63;3.55;;;;;;;24.77;69.59;101886.47;4998540;28;20043;-82
2023/06/10 06:12:28;;;;;;;8.68;3.47;;;;;;;24.61;70.97;101888.91;4977671;28;20054;-81
2023/06/10 06:14:55;;;;;;;5.95;3.97;;;;;;;24.55;71.95;101877.47;4976604;28;20081;-82
2023/06/10 06:17:23;;;;;;;12.15;3.80;;;;;;;24.71;72.09;101876.78;4973006;28;20058;-81
2023/06/10 06:19:50;;;;;;;11.98;4.07;;;;;;;24.79;72.03;101881.00;5000002;28;20046;-81
2023/06/10 06:22:21;;;;;;;9.30;4.40;;;;;;;24.78;71.90;101882.81;4982538;28;20058;-81
2023/06/10 06:24:49;;;;;;;6.43;4.10;;;;;;;24.71;70.03;101881.31;4965947;28;20082;-83
2023/06/10 06:27:16;;;;;;;8.05;3.50;;;;;;;24.41;71.90;101888.75;5001217;28;20038;-84
2023/06/10 06:29:44;;;;;;;6.25;3.47;;;;;;;24.12;71.70;101883.53;4975214;28;20475;-86
2023/06/10 06:32:12;;;;;;;5.63;3.35;;;;;;;23.68;73.32;101887.78;5006174;28;20387;-83
2023/06/10 06:34:39;;;;;;;8.65;3.60;;;;;;;23.30;75.65;101877.41;5003429;28;20050;-82
2023/06/10 06:37:07;;;;;;;12.65;4.03;;;;;;;23.26;77.22;101885.66;5005968;28;20058;-82
2023/06/10 06:39:37;;;;;;;7.63;4.88;;;;;;;23.08;78.16;101881.75;4966221;28;20052;-83
2023/06/10 06:42:05;;;;;;;9.80;4.55;;;;;;;22.78;76.82;101892.53;4965100;28;20054;-83
2023/06/10 06:45:02;;;;;;;11.07;4.15;;;;;;;22.05;81.30;101888.41;4970121;28;20471;-81
2023/06/10 06:47:29;;;;;;;15.82;4.28;;;;;;;21.79;84.79;101891.78;4987854;28;20065;-82
2023/06/10 06:49:57;;;;;;;7.22;3.67;;;;;;;21.58;84.03;101885.19;4969074;28;20057;-82
2023/06/10 06:52:24;;;;;;;6.53;3.88;;;;;;;21.11;86.13;101897.97;4998962;28;20415;-84
2023/06/10 06:54:52;;;;;;;8.38;4.85;;;;;;;20.63;88.31;101893.72;4938928;28;20046;-84
2023/06/10 06:57:19;;;;;;;10.00;3.65;;;;;;;20.37;91.86;101894.25;4977536;28;20046;-80
2023/06/10 06:59:46;;;;;;;10.10;4.10;;;;;;;20.20;93.26;101894.59;4965893;28;20050;-81
2023/06/10 07:02:14;;;;;;;11.07;4.35;;;;;;;20.05;94.84;101891.31;4980302;28;20400;-82
2023/06/10 07:04:41;;;;;;;13.48;3.97;;;;;;;19.77;98.90;101896.34;4973689;28;20523;-81
2023/06/10 07:07:09;;;;;;;10.02;4.32;;;;;;;19.72;100.00;101891.94;4964108;28;20050;-82
2023/06/10 07:09:37;;;;;;;11.25;4.28;;;;;;;19.86;99.87;101901.47;5001525;28;20046;-84
2023/06/10 07:12:05;;;;;;;13.70;4.00;;;;;;;19.82;100.00;101901.56;4992780;28;20060;-82
2023/06/10 07:14:32;;;;;;;7.28;3.80;;;;;;;19.83;100.00;101911.38;4977163;28;20042;-82
2023/06/10 07:17:00;;;;;;;7.60;4.80;;;;;;;19.81;100.00;101908.72;4989299;28;20062;-82
2023/06/10 07:19:27;;;;;;;8.45;3.78;;;;;;;19.80;100.00;101906.06;4970256;28;20054;-82
2023/06/10 07:21:55;;;;;;;9.90;4.00;;;;;;;19.71;100.00;101912.44;4946553;28;20506;-82
2023/06/10 07:24:22;;;;;;;7.80;3.78;;;;;;;19.46;100.00;101912.84;4989099;28;20422;-81
2023/06/10 07:26:50;;;;;;;10.35;4.45;;;;;;;19.54;100.00;101901.16;4937285;28;20054;-82
2023/06/10 07:29:18;;;;;;;7.38;3.50;;;;;;;19.54;100.00;101906.50;4978388;28;20058;-82
2023/06/10 07:31:45;;;;;;;8.73;4.30;;;;;;;19.57;100.00;101904.66;4977976;28;20049;-82
2023/06/10 07:34:12;;;;;;;4.65;3.42;;;;;;;19.41;100.00;101895.13;4982828;28;20056;-82
2023/06/10 07:36:39;;;;;;;9.23;3.83;;;;;;;19.54;100.00;101899.34;4985706;28;20038;-82
2023/06/10 07:39:07;;;;;;;8.80;3.90;;;;;;;19.47;100.00;101898.59;4987683;28;20274;-83
2023/06/10 07:41:35;;;;;;;8.60;4.57;;;;;;;19.58;100.00;101908.22;4973505;28;20086;-82
2023/06/10 07:44:04;;;;;;;6.65;3.83;;;;;;;19.59;100.00;101904.63;4993497;28;20056;-84
2023/06/10 07:46:31;;;;;;;8.07;3.35;;;;;;;19.83;100.00;101906.03;4950420;28;20046;-83
2023/06/10 07:48:59;;;;;;;10.18;4.00;;;;;;;19.79;100.00;101905.19;4985657;28;20060;-82
2023/06/10 07:51:26;;;;;;;8.77;3.95;;;;;;;19.77;100.00;101907.03;4968707;28;20050;-82
2023/06/10 07:53:54;;;;;;;9.77;3.55;;;;;;;19.75;100.00;101903.47;4985568;28;20050;-82
2023/06/10 07:56:21;;;;;;;7.80;4.00;;;;;;;19.66;100.00;101907.19;4958082;28;20371;-82
2023/06/10 07:58:48;;;;;;;7.68;4.55;;;;;;;19.70;100.00;101910.69;5000902;28;20420;-81
2023/06/10 08:01:16;;;;;;;9.73;4.40;;;;;;;19.85;100.00;101913.09;4970139;28;20069;-81
2023/06/10 08:03:43;;;;;;;11.30;3.92;;;;;;;20.07;100.00;101907.34;4992812;28;20042;-81
2023/06/10 08:06:11;;;;;;;7.18;3.75;;;;;;;20.25;100.00;101911.44;4990946;28;20053;-81
2023/06/10 08:08:42;;;;;;;10.40;3.85;;;;;;;20.45;100.00;101916.38;4991445;28;20046;-81
2023/06/10 08:11:13;;;;;;;7.80;3.85;;;;;;;20.38;100.00;101912.97;4969634;28;20041;-79
2023/06/10 08:13:40;;;;;;;7.10;4.10;;;;;;;20.32;100.00;101917.53;4984741;28;20046;-79
2023/06/10 08:16:08;;;;;;;8.65;4.03;;;;;;;20.18;100.00;101918.72;4947299;28;20415;-80
2023/06/10 08:18:36;;;;;;;5.10;3.28;;;;;;;20.22;100.00;101916.84;4971762;28;20416;-79
2023/06/10 08:21:04;;;;;;;7.68;3.53;;;;;;;20.32;100.00;101920.22;4972804;28;20648;-79
2023/06/10 08:23:31;;;;;;;9.05;4.20;;;;;;;20.29;100.00;101915.81;4956022;28;20426;-78
2023/06/10 08:25:59;;;;;;;7.20;3.97;;;;;;;20.24;100.00;101913.25;4977424;28;20060;-79
2023/06/10 08:28:26;;;;;;;4.85;3.03;;;;;;;20.30;100.00;101911.34;4945383;28;20052;-80
2023/06/10 08:30:53;;;;;;;9.00;3.67;;;;;;;20.24;100.00;101913.25;4960737;28;20052;-79
2023/06/10 08:33:23;;;;;;;9.88;4.05;;;;;;;20.36;100.00;101913.88;4976671;28;20046;-79
2023/06/10 08:35:51;;;;;;;9.35;3.50;;;;;;;20.35;100.00;101918.38;4991136;28;20065;-79
2023/06/10 08:38:19;;;;;;;10.57;3.53;;;;;;;20.36;100.00;101911.22;5006464;28;20504;-78
2023/06/10 08:40:46;;;;;;;5.88;3.10;;;;;;;20.42;100.00;101909.31;4983898;28;20054;-79
2023/06/10 08:43:30;;;;;;;6.75;3.45;;;;;;;20.48;100.00;101913.66;4949788;28;20059;-79
2023/06/10 08:46:01;;;;;;;8.57;3.40;;;;;;;20.63;100.00;101907.97;4984744;28;20049;-79
2023/06/10 08:48:33;;;;;;;7.30;3.78;;;;;;;20.69;100.00;101911.44;4982772;28;20053;-79
2023/06/10 08:51:05;;;;;;;8.40;3.65;;;;;;;20.77;100.00;101914.84;4963994;28;20050;-81
2023/06/10 08:53:36;;;;;;;9.18;3.67;;;;;;;20.63;100.00;101912.47;5004025;28;20045;-79
2023/06/10 08:56:05;;;;;;;6.63;3.65;;;;;;;20.55;100.00;101923.31;4997100;28;20042;-78
2023/06/10 08:58:35;;;;;;;7.68;3.90;;;;;;;20.53;100.00;101916.22;4921302;28;20054;-78
2023/06/10 09:01:02;;;;;;;7.35;3.65;;;;;;;20.57;100.00;101909.91;4969703;28;20049;-78
2023/06/10 09:03:30;;;;;;;7.72;3.72;;;;;;;20.74;100.00;101906.88;4990480;28;20052;-79
2023/06/10 09:05:58;;;;;;;9.00;3.75;;;;;;;20.67;100.00;101918.66;4959080;28;20423;-78
2023/06/10 09:08:26;;;;;;;12.52;4.07;;;;;;;20.58;100.00;101912.50;4968096;28;20057;-78
2023/06/10 09:10:53;;;;;;;12.73;3.90;;;;;;;20.69;100.00;101906.09;4979971;28;20411;-78
2023/06/10 09:13:21;;;;;;;6.47;3.65;;;;;;;20.83;100.00;101912.91;4974030;28;20054;-78
2023/06/10 09:15:51;;;;;;;8.13;3.13;;;;;;;20.89;100.00;101906.53;4961400;28;20415;-78
2023/06/10 09:18:18;;;;;;;8.90;4.07;;;;;;;21.02;100.00;101915.19;4991515;28;20061;-78
2023/06/10 09:20:46;;;;;;;8.68;4.00;;;;;;;21.05;100.00;101908.84;4968289;28;20046;-78
2023/06/10 09:23:16;;;;;;;7.20;3.90;;;;;;;21.01;100.00;101905.34;4998066;28;20092;-78
2023/06/10 09:25:43;;;;;;;7.50;3.63;;;;;;;21.03;100.00;101901.72;4998026;28;20057;-78
2023/06/10 09:28:15;;;;;;;7.22;3.60;;;;;;;21.12;100.00;101903.31;4985302;28;20049;-78
2023/06/10 09:30:42;;;;;;;9.88;4.07;;;;;;;21.15;100.00;101911.28;4963690;28;20053;-78
2023/06/10 09:33:14;;;;;;;10.10;3.80;;;;;;;21.07;100.00;101889.13;4985321;28;21480;-78
2023/06/10 09:35:47;;;;;;;8.07;3.80;;;;;;;21.14;100.00;101889.88;4985965;28;20050;-78
2023/06/10 09:38:20;;;;;;;9.50;4.25;;;;;;;21.15;100.00;101894.28;4993323;28;20061;-77
2023/06/10 09:40:52;;;;;;;7.20;3.47;;;;;;;21.11;100.00;101897.97;4978188;28;20058;-77
2023/06/10 09:43:20;;;;;;;9.32;4.35;;;;;;;21.08;100.00;101895.34;4971947;28;20058;-78
2023/06/10 09:45:53;;;;;;;9.15;3.88;;;;;;;21.05;100.00;101885.59;4952389;28;20045;-78
2023/06/10 09:48:22;;;;;;;7.03;3.88;;;;;;;21.17;100.00;101882.63;4987166;28;20058;-77
2023/06/10 09:50:49;;;;;;;8.55;4.40;;;;;;;21.29;100.00;101894.84;4969781;28;20050;-78
2023/06/10 09:53:17;;;;;;;10.93;4.25;;;;;;;21.35;100.00;101894.69;4963719;28;20081;-77
2023/06/10 09:55:45;;;;;;;7.95;3.50;;;;;;;21.42;100.00;101884.69;4984387;28;20054;-78
2023/06/10 09:58:12;;;;;;;6.50;4.07;;;;;;;21.51;100.00;101897.00;4993202;28;20384;-79
2023/06/10 10:00:40;;;;;;;8.27;3.60;;;;;;;21.52;100.00;101886.25;4973814;28;20065;-78
2023/06/10 10:03:07;;;;;;;9.68;4.03;;;;;;;21.60;100.00;101886.03;4938919;28;20041;-78
2023/06/10 10:05:35;;;;;;;10.05;4.45;;;;;;;21.73;100.00;101882.09;4951817;28;20046;-77
2023/06/10 10:08:03;;;;;;;6.43;3.75;;;;;;;21.88;100.00;101879.94;4970690;28;20054;-78
2023/06/10 10:10:30;;;;;;;5.25;3.72;;;;;;;21.91;100.00;101880.75;4969517;28;20057;-78
2023/06/10 10:13:00;;;;;;;6.05;3.45;;;;;;;21.93;100.00;101870.84;4989727;28;20046;-78
2023/06/10 10:15:30;;;;;;;5.97;3.67;;;;;;;22.02;100.00;101869.69;4966249;28;20046;-78
2023/06/10 10:18:07;;;;;;;12.27;3.85;;;;;;;22.03;100.00;101866.09;4948910;28;20054;-78
2023/06/10 10:20:45;;;;;;;9.95;4.80;;;;;;;22.17;100.00;101866.59;4979714;28;20061;-78
2023/06/10 10:23:18;;;;;;;4.82;3.42;;;;;;;22.18;100.00;101872.81;4987178;28;20065;-78
2023/06/10 10:25:51;;;;;;;8.50;4.15;;;;;;;22.31;100.00;101874.25;5002998;28;20042;-78
2023/06/10 10:28:21;;;;;;;6.28;3.47;;;;;;;22.28;100.00;101868.09;4989124;28;20506;-77
2023/06/10 10:30:58;;;;;;;6.70;4.00;;;;;;;22.40;100.00;101857.00;4985642;28;20508;-79
2023/06/10 10:33:33;;;;;;;8.73;2.95;;;;;;;22.62;100.00;101865.25;4962228;28;20046;-78
2023/06/10 10:36:02;;;;;;;8.77;3.80;;;;;;;22.79;100.00;101870.09;4978295;28;20050;-78
2023/06/10 10:38:31;;;;;;;8.15;3.28;;;;;;;22.90;96.97;101869.75;4967671;28;20045;-79
2023/06/10 10:41:00;;;;;;;7.57;3.80;;;;;;;22.96;96.91;101867.75;5000946;28;20542;-79
2023/06/10 10:43:29;;;;;;;5.28;3.00;;;;;;;23.04;94.55;101866.66;4980307;28;20057;-78
2023/06/10 10:46:00;;;;;;;4.15;3.40;;;;;;;23.12;93.29;101873.56;4968473;28;20287;-78
2023/06/10 10:48:36;;;;;;;6.75;2.70;;;;;;;23.16;93.63;101869.81;4965017;28;20046;-78
2023/06/10 10:51:04;;;;;;;8.05;3.05;;;;;;;23.32;94.79;101869.31;4978817;28;20117;-78
2023/06/10 10:53:31;;;;;;;5.90;3.10;;;;;;;23.43;93.48;101867.13;4973213;28;20073;-78
2023/06/10 10:56:07;;;;;;;9.95;4.53;;;;;;;23.47;92.04;101871.47;5002022;28;20418;-79
2023/06/10 10:58:35;;;;;;;7.97;2.92;;;;;;;23.57;92.20;101868.44;4999034;28;20061;-79
2023/06/10 11:01:16;;;;;;;5.40;3.03;;;;;;;23.67;92.39;101861.84;4983470;28;20061;-78
2023/06/10 11:03:46;;;;;;;11.98;3.72;;;;;;;23.80;91.14;101863.19;4952562;28;20693;-79
2023/06/10 11:06:18;;;;;;;7.55;3.80;;;;;;;23.87;89.79;101859.31;5002455;28;20517;-79
2023/06/10 11:08:47;;;;;;;7.47;3.42;;;;;;;23.91;89.71;101865.47;4980025;28;20054;-79
2023/06/10 11:11:20;;;;;;;9.27;3.63;;;;;;;24.00;90.36;101857.03;5004744;28;20062;-80
2023/06/10 11:14:06;;;;;;;9.73;3.95;;;;;;;24.08;87.66;101857.66;4986827;28;20054;-79
2023/06/10 11:16:42;;;;;;;6.90;3.53;;;;;;;24.17;88.70;101860.94;4989200;28;20054;-79
2023/06/10 11:19:10;;;;;;;5.95;3.88;;;;;;;24.18;87.93;101847.41;4950857;28;20057;-80
2023/06/10 11:22:15;;;;;;;6.90;3.72;;;;;;;24.38;86.95;101849.31;4946975;28;20054;-79
2023/06/10 11:24:50;;;;;;;5.80;3.58;;;;;;;24.51;88.41;101839.84;4951695;28;20058;-79
2023/06/10 11:27:24;;;;;;;5.88;3.53;;;;;;;24.68;87.91;101841.88;4995786;28;20967;-80